Time;durP1;ratioP1;P1;durP2;ratioP2;P2;SDS_P1;SDS_P2;PMS_P1;PMS_P2;Temp;Humidity;BMP_temperature;BMP_pressure;BME280_temperature;BME280_humidity;BME280_pressure;Samples;Min_cycle;Max_cycle;Signal;HPM_P1;HPM_P2
2022/03/03 00:01:12;;;;;;;18.93;9.90;;;-5.10;96.30;;;;;;4937107;29;20246;-74
2022/03/03 00:03:38;;;;;;;17.07;9.70;;;-5.10;96.30;;;;;;4919988;29;20280;-74
2022/03/03 00:06:03;;;;;;;16.73;10.13;;;-5.20;96.30;;;;;;4919970;29;20196;-74
2022/03/03 00:08:29;;;;;;;14.87;10.77;;;-5.30;96.30;;;;;;4936950;29;20176;-75
2022/03/03 00:10:54;;;;;;;19.80;9.80;;;-5.30;96.30;;;;;;4919939;29;20221;-74
2022/03/03 00:13:20;;;;;;;16.53;10.30;;;-5.40;96.30;;;;;;4937058;29;20203;-74
2022/03/03 00:15:45;;;;;;;22.70;12.30;;;-5.50;96.30;;;;;;4936922;29;20180;-74
2022/03/03 00:18:11;;;;;;;18.70;9.90;;;-5.50;96.30;;;;;;4936810;29;20180;-74
2022/03/03 00:20:36;;;;;;;16.47;10.50;;;-5.50;96.30;;;;;;4936831;29;20195;-74
2022/03/03 00:23:02;;;;;;;21.73;10.07;;;-5.60;96.30;;;;;;4936801;29;20266;-74
2022/03/03 00:25:27;;;;;;;16.60;10.33;;;-5.50;96.30;;;;;;4936725;29;20211;-74
2022/03/03 00:27:53;;;;;;;17.73;10.00;;;-5.60;96.30;;;;;;4936570;29;20175;-74
2022/03/03 00:30:18;;;;;;;13.87;9.83;;;-5.60;96.30;;;;;;4919496;29;20217;-75
2022/03/03 00:32:44;;;;;;;18.10;10.20;;;-5.60;96.30;;;;;;4936226;29;20630;-74
2022/03/03 00:35:11;;;;;;;14.07;9.30;;;-5.70;96.30;;;;;;4936645;29;20180;-76
2022/03/03 00:37:37;;;;;;;15.13;10.33;;;-5.70;96.30;;;;;;4936442;29;20184;-74
2022/03/03 00:40:04;;;;;;;15.20;9.70;;;-5.70;96.30;;;;;;4936526;29;20914;-74
2022/03/03 00:42:30;;;;;;;15.93;10.20;;;-5.80;96.30;;;;;;4919364;29;20470;-76
2022/03/03 00:44:55;;;;;;;12.97;8.40;;;-5.90;96.30;;;;;;4936282;29;20997;-74
2022/03/03 00:47:21;;;;;;;13.70;9.33;;;-5.90;96.30;;;;;;4936410;29;20941;-75
2022/03/03 00:49:47;;;;;;;18.73;9.03;;;-6.00;96.30;;;;;;4919183;29;20223;-75
2022/03/03 00:52:12;;;;;;;14.70;10.00;;;-6.00;96.30;;;;;;4919175;29;20635;-75
2022/03/03 00:54:38;;;;;;;15.10;8.63;;;-6.00;96.30;;;;;;4936310;29;20554;-74
2022/03/03 00:57:03;;;;;;;23.70;11.80;;;-6.10;96.30;;;;;;4936406;29;20254;-74
2022/03/03 00:59:29;;;;;;;15.57;9.20;;;-6.00;96.30;;;;;;4935964;29;20175;-75
2022/03/03 05:01:01;;;;;;;14.50;8.40;;;-6.50;96.30;;;;;;5643561;23;20471;-74
2022/03/03 05:03:27;;;;;;;13.03;9.07;;;-6.50;96.30;;;;;;4955257;29;20402;-76
2022/03/03 05:05:52;;;;;;;14.13;8.60;;;-6.60;96.30;;;;;;4955224;29;20206;-75
2022/03/03 05:08:17;;;;;;;13.00;8.00;;;-6.70;96.30;;;;;;4937484;29;20238;-74
2022/03/03 05:10:43;;;;;;;17.67;8.63;;;-6.80;96.30;;;;;;4955089;29;20199;-74
2022/03/03 05:13:08;;;;;;;13.30;8.97;;;-6.80;96.30;;;;;;4955196;29;20274;-76
2022/03/03 05:15:34;;;;;;;16.70;8.70;;;-6.90;96.30;;;;;;4955865;29;20185;-77
2022/03/03 05:18:00;;;;;;;18.00;8.77;;;-6.90;96.30;;;;;;4941809;28;20183;-76
2022/03/03 05:20:26;;;;;;;14.13;8.80;;;-6.90;96.30;;;;;;4955201;29;20315;-78
2022/03/03 05:22:51;;;;;;;14.10;8.60;;;-7.00;96.30;;;;;;4938596;29;20457;-76
2022/03/03 05:25:17;;;;;;;13.73;9.53;;;-7.20;96.30;;;;;;4938236;29;20214;-77
2022/03/03 05:27:42;;;;;;;13.37;7.57;;;-7.30;96.30;;;;;;4954479;29;20175;-77
2022/03/03 06:01:00;;;;;;;16.37;9.67;;;-6.90;96.30;;;;;;5514259;23;20550;-74
2022/03/03 06:03:29;;;;;;;18.63;10.17;;;-6.60;96.30;;;;;;4937126;29;20435;-75
2022/03/03 06:06:01;;;;;;;17.67;9.67;;;-6.00;96.30;;;;;;4954154;29;20446;-75
2022/03/03 06:08:39;;;;;;;21.77;10.00;;;-5.50;96.30;;;;;;4953574;29;20490;-75
2022/03/03 06:11:10;;;;;;;23.67;12.20;;;-4.80;96.30;;;;;;4917822;29;20447;-75
2022/03/03 06:13:43;;;;;;;24.50;12.40;;;-4.20;96.30;;;;;;4935068;29;20882;-75
2022/03/03 06:16:10;;;;;;;18.70;11.67;;;-3.40;96.30;;;;;;4934918;29;20487;-74
2022/03/03 06:18:38;;;;;;;19.30;11.37;;;-2.80;96.30;;;;;;4934415;29;20417;-74
2022/03/03 06:21:03;;;;;;;20.40;10.90;;;-2.40;96.30;;;;;;4934692;29;20435;-74
2022/03/03 06:23:30;;;;;;;18.50;10.37;;;-2.00;96.30;;;;;;4935013;29;20422;-74
2022/03/03 06:26:03;;;;;;;14.53;8.93;;;-1.80;96.30;;;;;;4934795;29;20191;-74
2022/03/03 06:28:29;;;;;;;14.73;8.23;;;-2.10;96.30;;;;;;4934070;29;20448;-74
2022/03/03 06:30:55;;;;;;;16.87;9.00;;;-2.70;96.30;;;;;;4919050;29;20482;-74
2022/03/03 06:33:21;;;;;;;16.30;8.20;;;-3.30;96.30;;;;;;4953896;29;20442;-74
2022/03/03 06:35:46;;;;;;;15.67;8.40;;;-3.70;96.30;;;;;;4936648;29;20731;-74
2022/03/03 06:38:12;;;;;;;13.33;9.03;;;-3.90;96.30;;;;;;4936101;29;20182;-75
2022/03/03 06:40:38;;;;;;;16.90;9.37;;;-3.30;96.30;;;;;;4954109;29;20258;-74
2022/03/03 06:43:03;;;;;;;15.10;10.47;;;-1.80;96.30;;;;;;4936660;29;20828;-74
2022/03/03 06:45:30;;;;;;;13.93;8.17;;;-0.40;96.30;;;;;;4953492;29;20454;-74
2022/03/03 06:47:59;;;;;;;13.43;8.37;;;0.80;96.30;;;;;;4953127;29;20696;-75
2022/03/03 06:50:25;;;;;;;11.80;8.20;;;1.80;96.30;;;;;;4948567;29;20470;-75
2022/03/03 06:52:52;;;;;;;14.53;8.63;;;2.70;96.30;;;;;;4934655;29;20411;-75
2022/03/03 06:55:22;;;;;;;12.20;7.90;;;3.30;96.30;;;;;;4934627;29;20675;-73
2022/03/03 06:57:54;;;;;;;10.50;7.37;;;3.80;96.30;;;;;;4934114;29;20423;-78
2022/03/03 07:00:21;;;;;;;14.10;9.27;;;4.50;95.80;;;;;;4948965;29;20791;-75
2022/03/03 07:02:48;;;;;;;10.50;8.50;;;5.20;92.10;;;;;;4936114;29;20416;-75
2022/03/03 07:05:16;;;;;;;12.00;8.77;;;4.60;90.90;;;;;;4930418;29;20455;-76
2022/03/03 07:07:43;;;;;;;13.77;9.23;;;4.60;92.00;;;;;;4919746;29;20510;-75
2022/03/03 07:10:11;;;;;;;14.07;9.27;;;4.60;92.40;;;;;;4934295;29;20411;-76
2022/03/03 07:12:36;;;;;;;13.27;9.87;;;4.70;91.80;;;;;;4934667;29;20414;-75
2022/03/03 07:15:02;;;;;;;13.77;9.97;;;5.10;91.70;;;;;;4934509;29;20412;-75
2022/03/03 07:18:09;;;;;;;19.00;11.37;;;5.80;89.50;;;;;;4916360;29;20179;-75
2022/03/03 07:20:59;;;;;;;12.23;9.53;;;5.00;89.00;;;;;;4933497;29;20448;-75
2022/03/03 07:23:36;;;;;;;11.63;8.17;;;3.40;93.80;;;;;;4903982;29;20423;-75
2022/03/03 07:26:04;;;;;;;14.40;8.10;;;3.30;96.20;;;;;;4916958;29;20455;-75
2022/03/03 07:28:31;;;;;;;12.13;8.57;;;4.30;93.00;;;;;;4916995;29;20415;-75
2022/03/03 07:31:00;;;;;;;11.80;8.10;;;4.50;93.10;;;;;;4934039;29;20855;-75
2022/03/03 07:33:47;;;;;;;11.97;7.93;;;4.90;91.80;;;;;;4952428;29;20446;-75
2022/03/03 07:36:25;;;;;;;13.30;8.43;;;5.60;88.40;;;;;;4935927;29;20829;-74
2022/03/03 07:38:59;;;;;;;12.33;7.97;;;4.60;88.80;;;;;;4952884;29;20425;-74
2022/03/03 07:41:26;;;;;;;14.07;8.60;;;3.30;92.60;;;;;;4953538;28;20441;-75
2022/03/03 07:43:52;;;;;;;10.03;7.07;;;2.40;95.60;;;;;;4956758;29;20418;-74
2022/03/03 07:46:18;;;;;;;15.30;9.20;;;1.40;96.30;;;;;;4939336;29;20874;-76
2022/03/03 07:48:47;;;;;;;12.23;8.60;;;0.80;96.30;;;;;;4956261;29;20912;-74
2022/03/03 07:51:13;;;;;;;13.40;8.43;;;0.40;96.30;;;;;;4956425;29;20191;-74
2022/03/03 07:53:39;;;;;;;16.50;8.60;;;-0.30;96.30;;;;;;4956634;29;20826;-74
2022/03/03 07:56:07;;;;;;;12.80;9.00;;;-0.30;96.30;;;;;;4956451;29;20419;-75
2022/03/03 07:58:35;;;;;;;13.30;9.10;;;-0.50;96.30;;;;;;4939030;29;20649;-77
2022/03/03 08:01:03;;;;;;;14.43;8.23;;;-0.50;96.30;;;;;;4938900;29;20551;-73
2022/03/03 08:03:30;;;;;;;12.87;9.33;;;-0.70;96.30;;;;;;4956435;29;20411;-73
2022/03/03 08:05:57;;;;;;;13.33;9.00;;;-1.00;96.30;;;;;;4940395;29;20451;-75
2022/03/03 08:08:26;;;;;;;12.63;8.90;;;-1.00;96.30;;;;;;4916790;29;20424;-77
2022/03/03 08:10:57;;;;;;;16.50;8.90;;;-1.00;96.30;;;;;;4923846;29;20450;-77
2022/03/03 08:13:26;;;;;;;16.73;10.80;;;-1.00;96.30;;;;;;4920299;29;20416;-77
2022/03/03 08:15:52;;;;;;;20.23;10.00;;;-1.20;96.30;;;;;;4920158;29;20423;-77
2022/03/03 08:18:20;;;;;;;16.60;11.03;;;-1.00;96.30;;;;;;4920021;29;20936;-77
2022/03/03 08:20:46;;;;;;;14.93;9.73;;;-0.90;96.30;;;;;;4937062;29;20439;-77
2022/03/03 08:23:12;;;;;;;19.33;10.03;;;-0.80;96.30;;;;;;4931587;29;20441;-77
2022/03/03 08:25:38;;;;;;;17.37;10.30;;;-0.80;96.30;;;;;;4919805;29;20534;-77
2022/03/03 08:28:04;;;;;;;16.73;9.70;;;-0.80;96.30;;;;;;4941630;29;20518;-76
2022/03/03 08:30:30;;;;;;;13.87;8.70;;;-0.70;96.30;;;;;;4938370;29;20234;-77
2022/03/03 08:33:19;;;;;;;16.50;10.57;;;-0.60;96.30;;;;;;4956008;29;20458;-76
2022/03/03 08:35:52;;;;;;;19.63;11.53;;;-0.60;96.30;;;;;;4954217;29;20410;-77
2022/03/03 08:38:30;;;;;;;16.03;9.17;;;-0.50;96.30;;;;;;4919521;29;20414;-76
2022/03/03 08:40:59;;;;;;;17.00;9.60;;;-0.60;96.30;;;;;;4949443;29;20441;-77
2022/03/03 08:43:27;;;;;;;17.57;10.70;;;-0.50;96.30;;;;;;4919085;29;21096;-77
2022/03/03 08:45:56;;;;;;;20.90;11.23;;;-0.40;96.30;;;;;;4916210;29;20533;-77
2022/03/03 08:48:25;;;;;;;21.63;11.17;;;-0.20;96.30;;;;;;4925974;29;20427;-75
2022/03/03 08:50:51;;;;;;;18.13;11.37;;;-0.20;96.30;;;;;;4960361;29;20502;-75
2022/03/03 08:53:17;;;;;;;19.37;11.40;;;-0.10;96.30;;;;;;4961036;29;20471;-76
2022/03/03 08:55:43;;;;;;;16.00;11.30;;;0.00;96.30;;;;;;4960411;28;20440;-76
2022/03/03 08:58:10;;;;;;;17.50;12.30;;;0.20;96.30;;;;;;4951057;29;20598;-75
2022/03/03 09:00:36;;;;;;;17.13;11.37;;;0.40;96.30;;;;;;4938969;29;20978;-77
2022/03/03 09:03:03;;;;;;;16.80;11.90;;;0.40;96.30;;;;;;4938921;29;20418;-77
2022/03/03 09:05:28;;;;;;;19.00;12.33;;;0.50;96.30;;;;;;4938507;29;20469;-76
2022/03/03 09:07:54;;;;;;;17.90;11.07;;;0.50;96.30;;;;;;4955516;29;20414;-77
2022/03/03 09:10:20;;;;;;;17.70;11.90;;;0.50;96.30;;;;;;4955703;29;20179;-76
2022/03/03 09:12:45;;;;;;;20.87;12.43;;;0.50;96.30;;;;;;4938408;29;20633;-76
2022/03/03 09:15:13;;;;;;;23.30;12.83;;;1.10;96.30;;;;;;4938299;29;20346;-78
2022/03/03 09:17:39;;;;;;;20.27;13.47;;;2.30;96.30;;;;;;4954856;29;20175;-77
2022/03/03 09:20:08;;;;;;;17.20;11.47;;;3.60;96.30;;;;;;4955407;29;20423;-77
2022/03/03 09:22:34;;;;;;;15.60;11.80;;;5.10;96.30;;;;;;4954813;29;20202;-76
2022/03/03 09:25:01;;;;;;;16.10;12.17;;;6.00;96.10;;;;;;4954990;29;20435;-76
2022/03/03 09:27:26;;;;;;;20.47;13.70;;;6.50;93.10;;;;;;4954949;29;20415;-79
2022/03/03 09:29:52;;;;;;;17.90;12.97;;;6.30;92.40;;;;;;4955044;29;20537;-76
2022/03/03 09:32:18;;;;;;;20.00;13.10;;;6.60;94.30;;;;;;4937790;29;20199;-76
2022/03/03 09:34:46;;;;;;;20.33;12.67;;;7.50;89.70;;;;;;4955307;29;20179;-77
2022/03/03 09:37:13;;;;;;;15.70;11.57;;;8.00;88.10;;;;;;4953174;29;20439;-76
2022/03/03 09:39:38;;;;;;;17.60;13.57;;;8.10;84.50;;;;;;4933985;29;20452;-77
2022/03/03 09:42:04;;;;;;;17.27;12.97;;;7.90;85.00;;;;;;4931299;29;20531;-78
2022/03/03 09:44:29;;;;;;;17.87;11.53;;;7.60;82.70;;;;;;4943775;29;20179;-76
2022/03/03 09:46:56;;;;;;;19.70;12.80;;;7.30;84.00;;;;;;4937052;29;20202;-75
2022/03/03 09:49:22;;;;;;;17.57;12.43;;;7.20;85.10;;;;;;4954483;29;20171;-75
2022/03/03 09:51:48;;;;;;;17.73;11.40;;;7.40;83.90;;;;;;4954511;29;20494;-75
2022/03/03 09:54:14;;;;;;;16.77;10.93;;;7.30;84.60;;;;;;4939211;29;20419;-76
2022/03/03 09:56:40;;;;;;;22.43;11.43;;;7.40;85.40;;;;;;4935362;29;20204;-75
2022/03/03 09:59:09;;;;;;;17.83;10.50;;;7.40;84.60;;;;;;4919888;29;20446;-75
2022/03/03 10:01:35;;;;;;;19.73;10.97;;;7.10;82.40;;;;;;4949351;29;20219;-77
2022/03/03 10:04:20;;;;;;;21.47;11.00;;;6.90;81.20;;;;;;4943364;29;21288;-75
2022/03/03 10:06:47;;;;;;;20.63;10.70;;;6.80;84.90;;;;;;4937638;29;20238;-75
2022/03/03 10:09:13;;;;;;;17.53;10.80;;;6.90;82.60;;;;;;4917858;29;20408;-75
2022/03/03 10:11:47;;;;;;;21.87;11.70;;;6.70;82.40;;;;;;4935040;29;20424;-75
2022/03/03 10:14:14;;;;;;;15.10;11.07;;;7.20;83.70;;;;;;4917914;29;20522;-76
2022/03/03 10:16:47;;;;;;;15.23;10.70;;;7.60;81.80;;;;;;4917725;29;20514;-75
2022/03/03 10:19:13;;;;;;;14.47;10.23;;;7.90;78.90;;;;;;4937317;29;20471;-75
2022/03/03 10:21:41;;;;;;;18.57;11.70;;;7.70;78.90;;;;;;4934923;29;20471;-75
2022/03/03 10:24:17;;;;;;;19.03;10.80;;;8.10;79.50;;;;;;4917948;29;20952;-75
2022/03/03 10:26:44;;;;;;;20.00;10.67;;;9.00;80.20;;;;;;4937114;29;20961;-76
2022/03/03 10:29:21;;;;;;;13.83;10.67;;;9.40;74.00;;;;;;4953967;29;20421;-76
2022/03/03 10:31:49;;;;;;;13.87;10.50;;;8.90;75.40;;;;;;4954049;29;20430;-75
2022/03/03 10:34:25;;;;;;;17.30;11.70;;;8.60;75.10;;;;;;4953827;29;20438;-75
2022/03/03 10:37:09;;;;;;;18.93;10.87;;;8.60;74.20;;;;;;4946092;29;20908;-75
2022/03/03 10:39:48;;;;;;;14.50;9.90;;;8.20;75.90;;;;;;4934602;29;20404;-75
2022/03/03 10:42:14;;;;;;;18.90;11.47;;;7.80;74.00;;;;;;4930423;29;20453;-76
2022/03/03 10:44:40;;;;;;;18.07;10.60;;;7.50;74.80;;;;;;4932646;29;20505;-75
2022/03/03 10:47:12;;;;;;;17.40;11.50;;;7.40;74.50;;;;;;4939095;29;20585;-75
2022/03/03 10:49:46;;;;;;;17.43;11.43;;;7.60;81.90;;;;;;4936373;29;20179;-75
2022/03/03 10:52:20;;;;;;;14.97;10.80;;;8.40;83.80;;;;;;4953769;29;20429;-75
2022/03/03 10:54:52;;;;;;;18.60;12.63;;;8.80;82.70;;;;;;4953754;29;20771;-75
2022/03/03 10:57:39;;;;;;;19.73;11.30;;;8.90;77.20;;;;;;4953639;29;20402;-75
2022/03/03 11:00:28;;;;;;;16.23;10.90;;;8.00;75.60;;;;;;4953472;29;20459;-75
2022/03/03 11:02:58;;;;;;;21.57;11.20;;;7.70;77.90;;;;;;4934853;29;20414;-74
2022/03/03 11:05:26;;;;;;;15.80;10.30;;;7.50;77.80;;;;;;4938792;29;21020;-75
2022/03/03 11:07:53;;;;;;;15.50;11.30;;;7.40;81.80;;;;;;4933231;29;20422;-75
2022/03/03 11:10:24;;;;;;;16.97;11.70;;;7.20;81.50;;;;;;4934172;29;20932;-74
2022/03/03 11:12:50;;;;;;;16.77;11.87;;;7.00;78.50;;;;;;4934380;29;20400;-74
2022/03/03 11:15:19;;;;;;;15.90;10.80;;;6.80;79.60;;;;;;4939688;29;20418;-77
2022/03/03 11:17:45;;;;;;;18.03;11.40;;;6.80;78.30;;;;;;4948796;29;20175;-77
2022/03/03 11:52:20;;;;;;;15.03;9.50;;;6.50;76.60;;;;;;4803814;29;20433;-77
2022/03/03 14:15:16;;;;;;;14.73;11.03;;;6.20;86.70;;;;;;5546134;23;20490;-76
2022/03/03 14:17:41;;;;;;;22.73;12.57;;;5.70;87.30;;;;;;4917880;29;20791;-75
2022/03/03 14:20:07;;;;;;;17.87;12.77;;;5.70;88.20;;;;;;4935018;29;20168;-75
2022/03/03 14:22:34;;;;;;;19.03;12.73;;;5.60;87.20;;;;;;4935002;29;20219;-75
2022/03/03 14:24:59;;;;;;;15.93;12.43;;;5.80;87.60;;;;;;4934909;29;20980;-75
2022/03/03 14:27:25;;;;;;;18.70;12.40;;;6.10;86.40;;;;;;4934796;29;20455;-75
2022/03/03 14:29:50;;;;;;;16.20;13.07;;;6.10;87.30;;;;;;4917711;29;20208;-76
2022/03/03 14:32:16;;;;;;;19.87;12.43;;;6.00;88.70;;;;;;4934789;29;20196;-75
2022/03/03 14:34:41;;;;;;;20.53;12.87;;;6.00;88.10;;;;;;4934861;29;20227;-74
2022/03/03 14:37:08;;;;;;;17.30;12.50;;;5.90;87.10;;;;;;4934386;29;20184;-75
2022/03/03 14:39:33;;;;;;;16.73;12.83;;;5.90;86.30;;;;;;4934278;29;20231;-76
2022/03/03 14:42:00;;;;;;;17.77;11.20;;;5.80;86.80;;;;;;4934669;29;20856;-76
2022/03/03 14:44:26;;;;;;;21.40;12.10;;;5.40;87.90;;;;;;4934867;29;20548;-74
2022/03/03 14:46:51;;;;;;;15.27;10.43;;;5.40;88.70;;;;;;4934681;29;20467;-75
2022/03/03 14:49:17;;;;;;;15.47;10.23;;;5.40;88.90;;;;;;4917361;29;20179;-74
2022/03/03 14:51:43;;;;;;;13.70;10.23;;;5.20;88.10;;;;;;4935506;29;20615;-74
2022/03/03 14:54:09;;;;;;;13.70;10.73;;;5.20;89.10;;;;;;4938659;29;20411;-75
2022/03/03 14:56:35;;;;;;;14.73;11.40;;;5.20;88.50;;;;;;4938461;29;20187;-74
2022/03/03 14:59:01;;;;;;;17.23;10.77;;;5.30;88.00;;;;;;4938284;29;20183;-74
2022/03/03 15:01:27;;;;;;;15.97;9.53;;;5.40;89.70;;;;;;4921425;29;20439;-74
2022/03/03 15:03:53;;;;;;;16.37;10.27;;;5.20;90.10;;;;;;4938528;29;20609;-75
2022/03/03 15:06:18;;;;;;;15.33;11.63;;;5.00;89.00;;;;;;4921267;29;20546;-74
2022/03/03 15:08:43;;;;;;;12.80;9.93;;;5.10;88.50;;;;;;4921112;29;20663;-74
2022/03/03 15:11:09;;;;;;;14.47;10.10;;;5.00;89.60;;;;;;4938012;29;20200;-74
2022/03/03 15:13:34;;;;;;;17.23;10.30;;;4.70;88.90;;;;;;4938156;29;20179;-74
2022/03/03 15:16:00;;;;;;;15.60;11.23;;;4.70;91.00;;;;;;4920902;29;20282;-77
2022/03/03 15:18:26;;;;;;;15.10;11.10;;;4.80;91.20;;;;;;4937812;29;20167;-77
2022/03/03 15:20:51;;;;;;;14.13;9.50;;;4.70;90.40;;;;;;4937903;29;20266;-77
2022/03/03 15:23:17;;;;;;;18.53;10.00;;;4.50;92.30;;;;;;4937975;29;20227;-76
2022/03/03 15:25:43;;;;;;;18.20;12.07;;;4.30;92.50;;;;;;4937863;29;20555;-76
2022/03/03 15:28:10;;;;;;;14.00;10.07;;;4.20;93.30;;;;;;4920701;29;20183;-77
2022/03/03 15:30:36;;;;;;;14.10;9.90;;;4.10;93.20;;;;;;4937815;29;20187;-76
2022/03/03 15:33:02;;;;;;;20.43;9.93;;;3.90;93.50;;;;;;4937865;29;20459;-77
2022/03/03 15:38:12;;;;;;;16.47;11.10;;;3.80;95.30;;;;;;4937892;29;20532;-76
2022/03/03 15:40:42;;;;;;;14.20;11.10;;;3.80;93.70;;;;;;4937552;29;20443;-76
2022/03/03 15:43:08;;;;;;;15.50;11.33;;;3.80;95.10;;;;;;4936661;29;20176;-76
2022/03/03 15:45:34;;;;;;;17.37;10.77;;;3.70;95.30;;;;;;4918543;29;20558;-77
2022/03/03 15:48:00;;;;;;;15.43;10.93;;;3.70;94.10;;;;;;4918351;29;20950;-76
2022/03/03 15:50:26;;;;;;;16.67;11.43;;;3.60;96.30;;;;;;4937349;29;20423;-76
2022/03/03 15:52:52;;;;;;;17.23;11.30;;;3.50;96.30;;;;;;4934333;29;20468;-79
2022/03/03 15:55:19;;;;;;;17.90;12.30;;;3.40;96.30;;;;;;4919313;29;20561;-78
2022/03/03 15:57:45;;;;;;;16.50;11.73;;;3.20;96.30;;;;;;4918266;29;20168;-77
2022/03/03 16:00:12;;;;;;;15.63;10.63;;;3.10;96.30;;;;;;4918551;29;20412;-76
2022/03/03 16:02:37;;;;;;;17.63;11.43;;;2.90;96.30;;;;;;4934524;29;20582;-77
2022/03/03 16:05:04;;;;;;;16.77;11.27;;;2.70;96.30;;;;;;4936662;29;20510;-77
2022/03/03 16:07:32;;;;;;;16.87;11.60;;;2.60;96.30;;;;;;4919101;29;20218;-78
2022/03/03 16:09:57;;;;;;;15.87;11.07;;;2.40;96.30;;;;;;4920016;29;20471;-77
2022/03/03 16:12:23;;;;;;;18.80;11.20;;;2.40;96.30;;;;;;4915275;29;20443;-78
2022/03/03 16:14:49;;;;;;;16.90;12.03;;;2.20;96.30;;;;;;4938077;29;20274;-79
2022/03/03 16:17:15;;;;;;;19.07;12.07;;;2.10;96.30;;;;;;4917435;29;20219;-79
2022/03/03 16:19:41;;;;;;;16.70;11.43;;;2.00;96.30;;;;;;4938286;29;20419;-75
2022/03/03 16:22:07;;;;;;;17.23;11.63;;;1.80;96.30;;;;;;4919806;29;20203;-76
2022/03/03 16:24:33;;;;;;;17.10;11.03;;;1.80;96.30;;;;;;4936706;29;20506;-75
2022/03/03 16:26:59;;;;;;;18.07;11.63;;;1.70;96.30;;;;;;4936833;29;20225;-75
2022/03/03 16:29:25;;;;;;;18.50;12.23;;;1.60;96.30;;;;;;4920944;29;20532;-75
2022/03/03 16:32:01;;;;;;;15.80;11.53;;;1.50;96.30;;;;;;4936827;29;20522;-75
2022/03/03 16:34:27;;;;;;;15.87;10.10;;;1.40;96.30;;;;;;4919879;29;20419;-75
2022/03/03 16:36:54;;;;;;;16.13;11.93;;;1.30;96.30;;;;;;4936966;29;20427;-76
2022/03/03 16:39:20;;;;;;;16.53;11.57;;;1.30;96.30;;;;;;4936562;29;20419;-76
2022/03/03 16:41:46;;;;;;;19.63;12.43;;;1.10;96.30;;;;;;4936868;29;20435;-76
2022/03/03 16:44:12;;;;;;;16.33;11.20;;;0.90;96.30;;;;;;4919624;29;20603;-75
2022/03/03 16:46:37;;;;;;;18.67;12.00;;;0.70;96.30;;;;;;4919458;29;20566;-76
2022/03/03 16:49:03;;;;;;;14.10;10.80;;;0.40;96.30;;;;;;4919423;29;20266;-75
2022/03/03 16:51:32;;;;;;;18.40;12.77;;;0.30;96.30;;;;;;4936723;29;20204;-75
2022/03/03 16:54:00;;;;;;;18.47;12.27;;;0.10;96.30;;;;;;4936692;29;20205;-74
2022/03/03 16:56:26;;;;;;;21.40;12.40;;;0.00;96.30;;;;;;4919315;29;20447;-76
2022/03/03 16:58:51;;;;;;;18.60;11.83;;;-0.10;96.30;;;;;;4919434;29;20416;-75
2022/03/03 17:01:17;;;;;;;16.93;11.50;;;-0.30;96.30;;;;;;4919117;29;20436;-75
2022/03/03 17:03:42;;;;;;;17.27;11.83;;;-0.40;96.30;;;;;;4919263;29;20282;-78
2022/03/03 17:06:09;;;;;;;21.83;12.23;;;-0.40;96.30;;;;;;4936353;29;20206;-78
2022/03/03 17:08:35;;;;;;;22.53;13.03;;;-0.60;96.30;;;;;;4918955;29;20646;-78
2022/03/03 17:11:01;;;;;;;17.53;12.10;;;-0.70;96.30;;;;;;4919202;29;20502;-79
2022/03/03 17:13:27;;;;;;;16.40;12.30;;;-0.80;96.30;;;;;;4936208;29;20198;-78
2022/03/03 17:15:53;;;;;;;18.70;11.80;;;-0.90;96.30;;;;;;4918654;29;20199;-78
2022/03/03 17:18:19;;;;;;;24.07;11.87;;;-1.00;96.30;;;;;;4919070;29;20423;-78
2022/03/03 17:20:44;;;;;;;19.53;12.60;;;-1.10;96.30;;;;;;4919491;29;20298;-77
2022/03/03 17:23:10;;;;;;;20.30;13.30;;;-1.20;96.30;;;;;;4918819;29;20184;-77
2022/03/03 17:25:36;;;;;;;24.80;13.10;;;-1.30;96.30;;;;;;4936728;29;20187;-76
2022/03/03 17:28:03;;;;;;;21.87;13.20;;;-1.30;96.30;;;;;;4935603;29;20183;-71
2022/03/03 17:30:29;;;;;;;25.90;16.87;;;-1.30;96.30;;;;;;4926265;29;20176;-71
2022/03/03 17:32:54;;;;;;;26.57;14.37;;;-1.20;96.30;;;;;;4925083;29;20901;-70
2022/03/03 17:35:20;;;;;;;25.97;14.80;;;-1.20;96.30;;;;;;4908747;29;20176;-70
2022/03/03 17:37:45;;;;;;;49.30;27.50;;;-1.20;96.30;;;;;;4923718;29;20238;-71
2022/03/03 17:40:15;;;;;;;33.67;21.97;;;-1.20;96.30;;;;;;4925050;29;20254;-71
2022/03/03 17:42:41;;;;;;;28.80;17.47;;;-1.10;96.30;;;;;;4925658;29;20508;-70
2022/03/03 17:45:07;;;;;;;27.63;15.77;;;-1.10;96.30;;;;;;4924409;29;20435;-68
2022/03/03 17:47:32;;;;;;;20.80;13.17;;;-1.20;96.30;;;;;;4907819;29;20463;-71
2022/03/03 17:49:58;;;;;;;26.03;12.50;;;-1.30;96.30;;;;;;4925641;29;20435;-70
2022/03/03 17:52:26;;;;;;;19.97;14.30;;;-1.40;96.30;;;;;;4923574;29;20210;-71
2022/03/03 17:54:52;;;;;;;18.67;12.90;;;-1.40;96.30;;;;;;4924815;29;20183;-68
2022/03/03 17:57:17;;;;;;;18.60;13.33;;;-1.50;96.30;;;;;;4927168;29;20431;-68
2022/03/03 17:59:43;;;;;;;19.00;12.17;;;-1.60;96.30;;;;;;4911300;29;20242;-69
2022/03/03 18:02:08;;;;;;;19.70;13.57;;;-1.70;96.30;;;;;;4927252;29;20199;-69
2022/03/03 18:04:34;;;;;;;22.57;14.50;;;-1.70;96.30;;;;;;4923011;29;20214;-69
2022/03/03 18:06:59;;;;;;;18.90;13.00;;;-1.70;96.30;;;;;;4926088;29;20706;-68
2022/03/03 18:09:25;;;;;;;22.07;14.30;;;-1.80;96.30;;;;;;4917389;29;20182;-68
2022/03/03 18:11:50;;;;;;;21.13;13.43;;;-1.90;96.30;;;;;;4917738;29;20196;-68
2022/03/03 18:14:16;;;;;;;23.80;13.87;;;-2.00;96.30;;;;;;4934902;29;20610;-68
2022/03/03 18:16:42;;;;;;;20.90;14.20;;;-2.00;96.30;;;;;;4935059;29;20590;-68
2022/03/03 18:19:08;;;;;;;25.23;13.83;;;-2.10;96.30;;;;;;4934745;29;20227;-67
2022/03/03 18:21:34;;;;;;;31.27;21.83;;;-2.10;96.30;;;;;;4934843;29;20515;-68
2022/03/03 18:24:00;;;;;;;25.27;16.43;;;-2.00;96.30;;;;;;4934709;29;20503;-68
2022/03/03 18:26:25;;;;;;;20.67;15.40;;;-1.90;96.30;;;;;;4933757;29;20731;-68
2022/03/03 18:28:52;;;;;;;23.33;15.27;;;-2.10;96.30;;;;;;4933617;29;20175;-69
2022/03/03 18:31:18;;;;;;;26.13;18.13;;;-2.20;96.30;;;;;;4920793;29;20251;-68
2022/03/03 18:33:44;;;;;;;24.70;16.20;;;-2.30;96.30;;;;;;4915778;29;20416;-68
2022/03/03 18:36:10;;;;;;;23.40;15.10;;;-2.40;96.30;;;;;;4905721;29;20484;-68
2022/03/03 18:38:36;;;;;;;30.13;14.80;;;-2.40;96.30;;;;;;4928847;29;20435;-68
2022/03/03 18:41:02;;;;;;;29.60;16.63;;;-2.50;96.30;;;;;;4909397;29;20444;-68
2022/03/03 18:43:28;;;;;;;26.30;16.60;;;-2.40;96.30;;;;;;4923695;29;20176;-69
2022/03/03 18:45:53;;;;;;;26.53;16.77;;;-2.30;96.30;;;;;;4924109;29;20196;-69
2022/03/03 18:48:19;;;;;;;26.67;16.23;;;-2.30;96.30;;;;;;4924497;29;20833;-68
2022/03/03 18:50:44;;;;;;;27.17;18.20;;;-2.30;96.30;;;;;;4924705;29;20228;-68
2022/03/03 18:53:10;;;;;;;34.00;18.17;;;-2.30;96.30;;;;;;4926686;29;20250;-69
2022/03/03 18:55:36;;;;;;;27.97;16.90;;;-2.30;96.30;;;;;;4906503;29;20180;-70
2022/03/03 18:58:02;;;;;;;34.43;20.03;;;-2.30;96.30;;;;;;4922053;29;20306;-70
2022/03/03 19:00:29;;;;;;;41.80;19.60;;;-2.20;96.30;;;;;;4924613;29;20527;-70
2022/03/03 19:02:54;;;;;;;30.27;17.20;;;-2.40;96.30;;;;;;4923796;29;20511;-70
2022/03/03 19:05:20;;;;;;;30.60;17.13;;;-2.60;96.30;;;;;;4924296;29;20455;-69
2022/03/03 19:07:45;;;;;;;31.40;18.37;;;-2.80;96.30;;;;;;4923796;29;20280;-70
2022/03/03 19:10:11;;;;;;;39.93;21.30;;;-2.90;96.30;;;;;;4905685;29;20526;-70
2022/03/03 19:12:39;;;;;;;29.60;18.00;;;-2.90;96.30;;;;;;4920678;29;20215;-69
2022/03/03 19:15:15;;;;;;;32.17;18.13;;;-2.90;96.30;;;;;;4914533;29;20199;-70
2022/03/03 19:17:41;;;;;;;31.67;19.10;;;-2.90;96.30;;;;;;4915155;29;20467;-70
2022/03/03 19:20:10;;;;;;;35.17;17.77;;;-3.00;96.30;;;;;;4915351;29;20423;-70
2022/03/03 19:22:36;;;;;;;36.50;20.00;;;-3.00;96.30;;;;;;4915173;29;20513;-70
2022/03/03 19:25:05;;;;;;;37.73;18.20;;;-3.10;96.30;;;;;;4915297;29;20416;-70
2022/03/03 19:27:31;;;;;;;30.80;17.90;;;-3.20;96.30;;;;;;4917234;29;20463;-70
2022/03/03 19:29:58;;;;;;;31.17;19.47;;;-3.10;96.30;;;;;;4931186;29;20429;-70
2022/03/03 19:35:09;;;;;;;36.63;19.07;;;-3.10;96.30;;;;;;4921055;29;20415;-70
2022/03/03 19:37:35;;;;;;;30.90;17.60;;;-3.10;96.30;;;;;;4923452;29;20424;-70
2022/03/03 19:40:00;;;;;;;36.27;18.63;;;-3.00;96.30;;;;;;4934358;29;21118;-79
2022/03/03 19:42:26;;;;;;;34.07;19.70;;;-3.10;96.30;;;;;;4920641;29;20205;-79
2022/03/03 19:44:53;;;;;;;41.30;21.47;;;-3.10;96.30;;;;;;4937724;29;20187;-79
2022/03/03 19:47:19;;;;;;;35.87;19.57;;;-3.10;96.30;;;;;;4936950;29;20206;-77
2022/03/03 19:49:45;;;;;;;45.17;20.00;;;-3.20;96.30;;;;;;4937349;29;20555;-78
2022/03/03 19:52:10;;;;;;;38.87;19.17;;;-3.20;96.30;;;;;;4937414;29;20494;-78
2022/03/03 19:54:36;;;;;;;35.83;19.10;;;-3.20;96.30;;;;;;4937860;29;20207;-78
2022/03/03 19:57:01;;;;;;;39.20;19.30;;;-3.20;96.30;;;;;;4920450;29;20207;-79
2022/03/03 19:59:27;;;;;;;39.97;18.70;;;-3.20;96.30;;;;;;4937204;29;20176;-79
2022/03/03 20:01:52;;;;;;;41.63;18.23;;;-3.10;96.30;;;;;;4937364;29;20210;-78